Time;durP1;ratioP1;P1;durP2;ratioP2;P2;SDS_P1;SDS_P2;PMS_P1;PMS_P2;Temp;Humidity;BMP_temperature;BMP_pressure;BME280_temperature;BME280_humidity;BME280_pressure;Samples;Min_cycle;Max_cycle;Signal;HPM_P1;HPM_P2
2023/12/17 00:00:48;;;;;;;10.77;3.83;;;10.60;99.90;;;;;;5026675;28;20192;-74
2023/12/17 00:03:14;;;;;;;7.53;3.53;;;10.60;99.90;;;;;;5026983;28;20029;-74
2023/12/17 00:05:39;;;;;;;10.30;4.45;;;10.60;99.90;;;;;;5027093;28;20025;-74
2023/12/17 00:08:05;;;;;;;7.53;4.07;;;10.60;99.90;;;;;;5026703;28;20021;-74
2023/12/17 00:10:30;;;;;;;11.23;4.43;;;10.60;99.90;;;;;;5020352;28;20022;-74
2023/12/17 00:12:56;;;;;;;15.10;4.60;;;10.60;99.90;;;;;;5021815;28;20036;-74
2023/12/17 00:15:22;;;;;;;13.43;4.72;;;10.60;99.90;;;;;;5026178;28;20125;-74
2023/12/17 00:17:48;;;;;;;10.27;4.50;;;10.60;99.90;;;;;;5026871;28;20058;-74
2023/12/17 00:20:13;;;;;;;9.80;4.70;;;10.60;99.90;;;;;;5022700;28;20025;-74
2023/12/17 00:22:39;;;;;;;11.30;4.70;;;10.60;99.90;;;;;;5019176;28;20018;-74
2023/12/17 00:25:05;;;;;;;8.68;4.32;;;10.60;99.90;;;;;;5029245;27;20036;-74
2023/12/17 00:27:31;;;;;;;9.15;4.38;;;10.60;99.90;;;;;;5028592;28;20587;-74
2023/12/17 00:29:56;;;;;;;11.93;4.68;;;10.60;99.90;;;;;;5029789;28;20026;-74
2023/12/17 00:32:22;;;;;;;12.48;4.93;;;10.60;99.90;;;;;;5030204;28;20053;-74
2023/12/17 00:34:48;;;;;;;12.10;4.50;;;10.60;99.90;;;;;;5029911;28;20033;-74
2023/12/17 00:37:13;;;;;;;8.98;4.65;;;10.50;99.90;;;;;;5029650;28;20133;-74
2023/12/17 00:39:39;;;;;;;11.88;4.50;;;10.60;99.90;;;;;;5024041;28;20016;-74
2023/12/17 00:42:05;;;;;;;9.75;3.90;;;10.50;99.90;;;;;;5022864;28;20382;-74
2023/12/17 00:44:31;;;;;;;8.35;4.07;;;10.50;99.90;;;;;;5029437;28;20021;-75
2023/12/17 00:46:56;;;;;;;9.38;3.83;;;10.60;99.90;;;;;;5016138;28;20493;-74
2023/12/17 00:49:22;;;;;;;9.07;3.50;;;10.50;99.90;;;;;;5019491;28;20022;-74
2023/12/17 00:51:48;;;;;;;8.18;3.63;;;10.50;99.90;;;;;;5029598;28;20396;-74
2023/12/17 00:54:13;;;;;;;5.93;2.80;;;10.50;99.90;;;;;;5029568;28;20047;-75
2023/12/17 00:56:39;;;;;;;9.88;3.13;;;10.50;99.90;;;;;;5029285;28;20027;-74
2023/12/17 00:59:05;;;;;;;8.73;3.50;;;10.50;99.90;;;;;;5017056;28;20477;-74
2023/12/17 01:01:30;;;;;;;8.82;2.78;;;10.60;99.90;;;;;;5029150;28;20041;-74
2023/12/17 01:03:56;;;;;;;10.48;2.80;;;10.50;99.90;;;;;;5028825;28;20026;-75
2023/12/17 01:06:21;;;;;;;8.00;2.90;;;10.50;99.90;;;;;;5024317;28;20022;-74
2023/12/17 01:08:47;;;;;;;7.18;2.65;;;10.60;99.90;;;;;;5019752;28;20060;-74
2023/12/17 01:11:13;;;;;;;7.55;2.88;;;10.60;99.90;;;;;;5020152;28;20018;-74
2023/12/17 01:13:38;;;;;;;7.20;2.90;;;10.50;99.90;;;;;;5029201;28;20037;-75
2023/12/17 01:16:04;;;;;;;7.13;2.55;;;10.60;99.90;;;;;;5028304;28;20552;-74
2023/12/17 01:18:30;;;;;;;10.02;2.58;;;10.60;99.90;;;;;;5027670;28;20021;-74
2023/12/17 01:20:58;;;;;;;6.78;2.80;;;10.60;99.90;;;;;;5028439;28;20052;-74
2023/12/17 01:23:23;;;;;;;5.15;2.28;;;10.60;99.90;;;;;;5027909;28;20504;-75
2023/12/17 01:25:49;;;;;;;7.63;2.58;;;10.60;99.90;;;;;;5029442;28;20029;-74
2023/12/17 01:28:14;;;;;;;10.23;2.45;;;10.60;99.90;;;;;;5027486;28;20661;-74
2023/12/17 01:30:40;;;;;;;6.65;2.70;;;10.60;99.90;;;;;;5023973;28;20029;-74
2023/12/17 01:33:06;;;;;;;7.38;2.85;;;10.60;99.90;;;;;;5028095;28;20063;-74
2023/12/17 01:35:31;;;;;;;7.38;2.63;;;10.60;99.90;;;;;;5027656;28;20060;-74
2023/12/17 01:37:57;;;;;;;6.30;2.60;;;10.60;99.90;;;;;;5028443;28;20026;-75
2023/12/17 01:40:23;;;;;;;6.85;2.30;;;10.60;99.90;;;;;;5016630;28;20621;-75
2023/12/17 01:42:52;;;;;;;6.82;2.00;;;10.60;99.90;;;;;;5029314;28;20026;-74
2023/12/17 01:45:18;;;;;;;10.55;2.08;;;10.60;99.90;;;;;;5028928;27;20585;-74
2023/12/17 01:47:44;;;;;;;11.10;2.40;;;10.60;99.90;;;;;;5017621;28;20026;-74
2023/12/17 01:50:10;;;;;;;9.90;2.30;;;10.60;99.90;;;;;;5028849;27;20074;-74
2023/12/17 01:52:35;;;;;;;6.20;2.00;;;10.60;99.90;;;;;;5028400;28;20029;-74
2023/12/17 01:55:03;;;;;;;6.72;1.95;;;10.60;99.90;;;;;;5028796;28;20112;-74
2023/12/17 01:57:29;;;;;;;9.20;2.40;;;10.60;99.90;;;;;;5028878;27;20124;-74
2023/12/17 01:59:56;;;;;;;8.98;2.35;;;10.60;99.90;;;;;;5017686;28;20013;-74
2023/12/17 02:02:21;;;;;;;8.38;2.10;;;10.60;99.90;;;;;;5020490;27;20494;-74
2023/12/17 02:04:47;;;;;;;9.18;2.30;;;10.60;99.90;;;;;;5028531;28;20022;-74
2023/12/17 02:07:12;;;;;;;10.68;2.83;;;10.60;99.90;;;;;;5097098;28;20022;-74
2023/12/17 02:09:38;;;;;;;12.73;2.60;;;10.60;99.90;;;;;;5027708;28;20037;-74
2023/12/17 02:12:04;;;;;;;10.48;2.97;;;10.60;99.90;;;;;;5095028;28;20148;-74
2023/12/17 02:14:30;;;;;;;7.28;2.80;;;10.60;99.90;;;;;;5022469;28;20042;-74
2023/12/17 02:16:55;;;;;;;7.18;3.03;;;10.60;99.90;;;;;;5024752;27;20037;-74
2023/12/17 02:19:21;;;;;;;6.45;2.33;;;10.60;99.90;;;;;;5028050;28;20021;-74
2023/12/17 02:21:46;;;;;;;6.93;3.13;;;10.60;99.90;;;;;;5027466;28;20021;-74
2023/12/17 02:24:12;;;;;;;11.45;3.42;;;10.50;99.90;;;;;;5021278;28;20055;-74
2023/12/17 02:26:41;;;;;;;8.43;3.03;;;10.50;99.90;;;;;;5022519;27;20025;-74
2023/12/17 02:29:07;;;;;;;8.43;2.55;;;10.50;99.90;;;;;;5034445;28;20024;-74
2023/12/17 02:31:33;;;;;;;15.35;3.33;;;10.50;99.90;;;;;;5028219;28;20029;-74
2023/12/17 02:33:58;;;;;;;14.63;3.47;;;10.50;99.90;;;;;;5027570;28;20046;-74
2023/12/17 02:36:24;;;;;;;13.45;3.70;;;10.40;99.90;;;;;;5027207;28;20067;-74
2023/12/17 02:38:49;;;;;;;15.55;4.03;;;10.40;99.90;;;;;;5022353;28;20025;-74
2023/12/17 02:41:15;;;;;;;15.05;3.50;;;10.40;99.90;;;;;;5026999;28;20064;-74
2023/12/17 02:43:40;;;;;;;19.83;3.95;;;10.40;99.90;;;;;;5026203;28;20024;-74
2023/12/17 02:46:06;;;;;;;18.80;3.60;;;10.40;99.90;;;;;;5027192;28;20546;-74
2023/12/17 02:48:33;;;;;;;14.38;3.70;;;10.40;99.90;;;;;;5027862;28;20461;-74
2023/12/17 02:50:58;;;;;;;14.45;4.28;;;10.40;99.90;;;;;;5027369;28;20030;-75
2023/12/17 02:53:24;;;;;;;16.30;4.35;;;10.30;99.90;;;;;;5027979;28;20021;-74
2023/12/17 02:55:49;;;;;;;19.48;4.32;;;10.40;99.90;;;;;;5025198;28;20060;-74
2023/12/17 02:58:15;;;;;;;23.50;5.82;;;10.30;99.90;;;;;;5027861;28;20081;-74
2023/12/17 03:00:41;;;;;;;23.30;5.28;;;10.30;99.90;;;;;;5027556;28;20410;-74
2023/12/17 03:03:06;;;;;;;21.08;5.57;;;10.30;99.90;;;;;;5026540;28;20069;-74
2023/12/17 03:05:32;;;;;;;23.45;5.38;;;10.30;99.90;;;;;;5027941;28;20029;-74
2023/12/17 03:07:57;;;;;;;22.35;5.55;;;10.30;99.90;;;;;;5020206;28;20017;-74
2023/12/17 03:10:23;;;;;;;17.20;4.72;;;10.20;99.90;;;;;;5016541;28;20015;-74
2023/12/17 03:12:49;;;;;;;21.30;5.40;;;10.20;99.90;;;;;;5024481;28;20049;-74
2023/12/17 03:15:14;;;;;;;24.48;5.53;;;10.20;99.90;;;;;;5018666;28;20053;-74
2023/12/17 03:17:40;;;;;;;19.08;4.90;;;10.20;99.90;;;;;;5027612;28;20033;-74
2023/12/17 03:20:06;;;;;;;19.70;4.88;;;10.20;99.90;;;;;;5027299;28;20021;-74
2023/12/17 03:22:32;;;;;;;17.75;5.30;;;10.20;99.90;;;;;;5027805;28;20127;-74
2023/12/17 03:24:58;;;;;;;20.45;5.32;;;10.20;99.90;;;;;;5027630;28;20108;-74
2023/12/17 03:27:23;;;;;;;23.00;6.10;;;10.20;99.90;;;;;;5027914;28;20033;-74
2023/12/17 03:29:49;;;;;;;24.92;6.38;;;10.20;99.90;;;;;;5024301;28;20482;-74
2023/12/17 03:32:15;;;;;;;24.98;6.90;;;10.20;99.90;;;;;;5015726;28;20027;-74
2023/12/17 03:34:41;;;;;;;22.55;7.47;;;10.20;99.90;;;;;;5027336;28;20026;-74
2023/12/17 03:37:06;;;;;;;25.38;7.13;;;10.20;99.90;;;;;;5027651;28;20116;-74
2023/12/17 03:39:32;;;;;;;22.85;7.35;;;10.20;99.90;;;;;;5026649;28;20236;-74
2023/12/17 03:41:58;;;;;;;29.40;7.35;;;10.20;99.90;;;;;;5027396;28;20106;-74
2023/12/17 03:44:23;;;;;;;33.05;7.50;;;10.20;99.90;;;;;;5026929;28;20013;-74
2023/12/17 03:46:49;;;;;;;20.73;7.03;;;10.20;99.90;;;;;;5027191;28;20086;-74
2023/12/17 03:49:14;;;;;;;29.40;7.53;;;10.10;99.90;;;;;;5023959;28;20093;-74
2023/12/17 03:51:40;;;;;;;29.65;7.60;;;10.20;99.90;;;;;;5027249;28;20117;-74
2023/12/17 03:54:05;;;;;;;26.95;7.40;;;10.10;99.90;;;;;;5026195;28;20053;-74
2023/12/17 03:56:31;;;;;;;23.95;8.73;;;10.10;99.90;;;;;;5026601;28;20120;-74
2023/12/17 03:58:57;;;;;;;25.77;8.02;;;10.10;99.90;;;;;;5026167;28;20505;-74
2023/12/17 04:01:23;;;;;;;32.05;9.70;;;10.10;99.90;;;;;;5025054;28;20457;-74
2023/12/17 04:03:48;;;;;;;26.73;9.20;;;10.10;99.90;;;;;;5026536;28;20017;-74
2023/12/17 04:06:14;;;;;;;26.05;9.50;;;10.10;99.90;;;;;;5022050;28;20036;-74
2023/12/17 04:08:39;;;;;;;30.58;9.73;;;10.10;99.90;;;;;;5070560;28;20076;-74
2023/12/17 04:11:05;;;;;;;27.50;9.23;;;10.00;99.90;;;;;;5026770;28;20045;-74
2023/12/17 04:13:31;;;;;;;29.15;9.60;;;10.00;99.90;;;;;;5026238;28;20107;-74
2023/12/17 04:15:56;;;;;;;33.50;9.30;;;10.00;99.90;;;;;;5019855;28;20049;-74
2023/12/17 04:18:23;;;;;;;26.45;8.15;;;10.00;99.90;;;;;;5026805;28;20046;-74
2023/12/17 04:20:49;;;;;;;29.60;8.27;;;10.00;99.90;;;;;;5017263;28;20066;-74
2023/12/17 04:23:15;;;;;;;31.92;8.43;;;10.00;99.90;;;;;;5026558;28;20025;-74
2023/12/17 04:25:40;;;;;;;30.73;8.20;;;10.00;99.90;;;;;;5026790;28;20397;-74
2023/12/17 04:28:06;;;;;;;26.05;7.70;;;10.00;99.90;;;;;;5025591;28;20030;-74
2023/12/17 04:30:32;;;;;;;29.40;8.95;;;9.90;99.90;;;;;;5023401;28;20033;-74
2023/12/17 04:32:57;;;;;;;32.90;9.20;;;10.00;99.90;;;;;;5026545;28;20026;-74
2023/12/17 04:35:23;;;;;;;43.03;10.38;;;9.90;99.90;;;;;;5026632;28;20058;-74
2023/12/17 04:37:49;;;;;;;38.65;10.23;;;9.90;99.90;;;;;;5025650;28;20082;-74
2023/12/17 04:40:14;;;;;;;35.67;10.23;;;9.90;99.90;;;;;;5025915;28;20579;-74
2023/12/17 04:42:40;;;;;;;41.40;9.57;;;9.90;99.90;;;;;;5026555;28;20083;-74
2023/12/17 04:45:06;;;;;;;43.00;10.40;;;9.90;99.90;;;;;;5025701;28;20026;-74
2023/12/17 04:47:32;;;;;;;47.58;10.88;;;9.90;99.90;;;;;;5022139;28;20381;-74
2023/12/17 04:49:57;;;;;;;41.63;9.90;;;9.90;99.90;;;;;;5026269;28;20036;-74
2023/12/17 04:52:23;;;;;;;34.80;10.93;;;9.90;99.90;;;;;;5024488;28;20057;-74
2023/12/17 04:54:49;;;;;;;38.67;9.60;;;9.90;99.90;;;;;;5026148;28;20028;-74
2023/12/17 04:57:14;;;;;;;43.88;10.18;;;9.90;99.90;;;;;;5024191;28;20032;-74
2023/12/17 04:59:41;;;;;;;39.45;9.50;;;9.90;99.90;;;;;;5026247;28;20033;-74
2023/12/17 05:02:06;;;;;;;29.75;9.25;;;9.90;99.90;;;;;;5022279;28;20025;-74
2023/12/17 05:04:32;;;;;;;32.28;9.27;;;9.90;99.90;;;;;;5026522;28;20062;-74
2023/12/17 05:06:58;;;;;;;33.75;8.60;;;9.90;99.90;;;;;;5025459;28;20060;-74
2023/12/17 05:09:23;;;;;;;38.75;9.57;;;9.90;99.90;;;;;;5023022;28;20014;-74
2023/12/17 05:11:49;;;;;;;48.35;9.18;;;9.90;99.90;;;;;;5020896;28;20022;-74
2023/12/17 05:14:15;;;;;;;45.85;9.52;;;9.90;99.90;;;;;;5033393;28;20132;-74
2023/12/17 05:16:41;;;;;;;37.25;9.80;;;9.90;99.90;;;;;;5026453;27;20026;-74
2023/12/17 05:19:07;;;;;;;38.15;9.43;;;9.90;99.90;;;;;;5029699;28;20516;-74
2023/12/17 05:21:32;;;;;;;38.78;9.43;;;9.90;99.90;;;;;;5029115;28;20024;-74
2023/12/17 05:23:58;;;;;;;43.28;9.80;;;9.90;99.90;;;;;;5020292;28;20141;-74
2023/12/17 05:26:23;;;;;;;46.28;9.48;;;9.90;99.90;;;;;;5028185;28;20029;-74
2023/12/17 05:28:49;;;;;;;47.53;12.00;;;9.90;99.90;;;;;;5029104;28;20101;-74
2023/12/17 05:31:15;;;;;;;54.90;12.38;;;9.90;99.90;;;;;;5022648;28;20017;-74
2023/12/17 05:33:41;;;;;;;41.17;12.13;;;9.90;99.90;;;;;;5072424;28;20478;-74
2023/12/17 05:36:07;;;;;;;45.75;12.27;;;9.90;99.90;;;;;;5025610;28;20014;-74
2023/12/17 05:38:33;;;;;;;38.00;11.60;;;9.90;99.90;;;;;;5025122;28;20060;-74
2023/12/17 05:40:58;;;;;;;54.00;13.30;;;10.00;99.90;;;;;;5027630;28;20017;-74
2023/12/17 05:43:24;;;;;;;37.20;13.82;;;9.90;99.90;;;;;;5018920;28;20014;-74
2023/12/17 05:45:49;;;;;;;38.70;13.77;;;9.90;99.90;;;;;;5025445;28;20025;-74
2023/12/17 05:48:15;;;;;;;37.40;14.15;;;9.90;99.90;;;;;;5021428;28;20093;-74
2023/12/17 05:50:42;;;;;;;46.63;14.07;;;10.00;99.90;;;;;;5028801;28;20022;-74
2023/12/17 05:53:08;;;;;;;41.55;15.30;;;10.00;99.90;;;;;;5053920;27;20024;-74
2023/12/17 05:55:33;;;;;;;32.75;12.80;;;10.00;99.90;;;;;;5038288;28;20029;-74
2023/12/17 05:57:59;;;;;;;33.10;11.43;;;10.00;99.90;;;;;;5029028;28;20029;-74
2023/12/17 06:00:24;;;;;;;35.45;10.70;;;9.90;99.90;;;;;;5027030;28;20245;-74
2023/12/17 06:02:50;;;;;;;30.48;11.10;;;9.90;99.90;;;;;;5015697;28;20040;-74
2023/12/17 06:05:16;;;;;;;30.35;11.35;;;9.90;99.90;;;;;;5029068;27;20457;-74
2023/12/17 06:07:41;;;;;;;34.00;12.13;;;9.90;99.90;;;;;;5028118;28;20030;-74
2023/12/17 06:10:08;;;;;;;34.75;12.00;;;10.00;99.90;;;;;;5025692;28;20037;-74
2023/12/17 06:12:33;;;;;;;32.58;10.88;;;9.90;99.90;;;;;;5019430;28;20025;-74
2023/12/17 06:14:59;;;;;;;35.00;11.20;;;10.00;99.90;;;;;;5028164;28;20046;-74
2023/12/17 06:17:25;;;;;;;34.15;11.95;;;9.90;99.90;;;;;;5028785;28;20088;-74
2023/12/17 06:19:50;;;;;;;40.30;13.90;;;9.90;99.90;;;;;;5024605;28;20142;-74
2023/12/17 06:22:16;;;;;;;42.45;16.15;;;9.90;99.90;;;;;;5028617;28;20026;-74
2023/12/17 06:24:42;;;;;;;45.15;19.10;;;9.90;99.90;;;;;;5028342;28;20028;-74
2023/12/17 06:27:18;;;;;;;42.92;19.92;;;9.90;99.90;;;;;;5024324;28;20475;-74
2023/12/17 06:29:44;;;;;;;51.75;20.52;;;9.90;99.90;;;;;;5009553;28;20053;-74
2023/12/17 06:32:11;;;;;;;45.67;20.75;;;9.90;99.90;;;;;;5021948;28;20295;-74
2023/12/17 06:34:37;;;;;;;53.20;23.40;;;9.90;99.90;;;;;;5018973;28;20090;-74
2023/12/17 06:37:03;;;;;;;58.72;26.67;;;9.90;99.90;;;;;;5027824;28;20093;-74
2023/12/17 06:39:29;;;;;;;58.08;27.35;;;9.90;99.90;;;;;;5027237;28;20339;-74
2023/12/17 06:41:54;;;;;;;60.97;28.30;;;9.90;99.90;;;;;;5028983;27;20153;-74
2023/12/17 06:44:20;;;;;;;71.95;30.65;;;9.90;99.90;;;;;;5019412;28;20067;-74
2023/12/17 06:46:46;;;;;;;71.05;29.80;;;9.90;99.90;;;;;;5025989;28;20066;-74
2023/12/17 06:49:12;;;;;;;61.40;29.15;;;9.90;99.90;;;;;;5027498;28;20018;-74
2023/12/17 06:51:39;;;;;;;65.63;29.92;;;9.90;99.90;;;;;;5026162;28;20025;-74
2023/12/17 06:54:05;;;;;;;64.75;30.10;;;9.90;99.90;;;;;;5020006;28;20041;-74
2023/12/17 06:56:30;;;;;;;60.20;28.95;;;9.90;99.90;;;;;;5024195;28;20029;-74
2023/12/17 06:58:56;;;;;;;71.15;30.67;;;9.90;99.90;;;;;;5024339;28;20303;-74
2023/12/17 07:01:22;;;;;;;67.75;30.90;;;9.80;99.90;;;;;;5020998;28;20398;-74
2023/12/17 07:03:47;;;;;;;68.30;29.17;;;9.90;99.90;;;;;;5019308;28;20074;-74
2023/12/17 07:06:13;;;;;;;63.50;29.95;;;9.90;99.90;;;;;;5016459;28;20022;-74
2023/12/17 07:08:38;;;;;;;59.90;27.52;;;9.80;99.90;;;;;;5019030;28;20556;-74
2023/12/17 07:11:04;;;;;;;54.47;24.83;;;9.80;99.90;;;;;;5022112;28;20054;-74
2023/12/17 07:13:30;;;;;;;49.08;24.10;;;9.80;99.90;;;;;;5021051;28;20025;-74
2023/12/17 07:15:55;;;;;;;47.13;22.98;;;9.80;99.90;;;;;;5024186;28;20490;-74
2023/12/17 07:18:21;;;;;;;46.08;22.45;;;9.70;99.90;;;;;;5014936;28;20029;-74
2023/12/17 07:20:47;;;;;;;39.42;21.40;;;9.80;99.90;;;;;;5013672;28;20029;-74
2023/12/17 07:23:13;;;;;;;41.67;19.60;;;9.80;99.90;;;;;;5019360;28;20028;-74
2023/12/17 07:25:39;;;;;;;39.17;19.42;;;9.80;99.90;;;;;;5026223;28;20037;-74
2023/12/17 07:28:04;;;;;;;42.95;18.58;;;9.80;99.90;;;;;;5027775;28;20086;-74
2023/12/17 07:30:30;;;;;;;38.45;20.02;;;9.70;99.90;;;;;;5022337;28;20026;-74
2023/12/17 07:32:55;;;;;;;38.75;19.02;;;9.70;99.90;;;;;;5018798;28;20025;-74
2023/12/17 07:35:21;;;;;;;42.42;18.20;;;9.70;99.90;;;;;;5020386;28;20540;-74
2023/12/17 07:37:47;;;;;;;36.22;17.05;;;9.70;99.90;;;;;;5024697;28;20067;-74
2023/12/17 07:40:12;;;;;;;39.55;17.50;;;9.70;99.90;;;;;;5015500;28;20485;-76
2023/12/17 07:42:38;;;;;;;36.50;18.20;;;9.60;99.90;;;;;;5027044;28;20091;-74
2023/12/17 07:45:04;;;;;;;34.17;17.52;;;9.60;99.90;;;;;;5017714;28;20022;-74
2023/12/17 07:47:30;;;;;;;42.58;18.55;;;9.60;99.90;;;;;;5015932;28;20489;-74
2023/12/17 07:49:57;;;;;;;39.70;17.48;;;9.60;99.90;;;;;;5032032;28;20018;-74
2023/12/17 07:52:22;;;;;;;37.45;16.13;;;9.60;99.90;;;;;;5028657;28;20521;-74
2023/12/17 07:54:48;;;;;;;33.40;15.70;;;9.60;99.90;;;;;;5017453;28;20104;-74
2023/12/17 07:57:13;;;;;;;31.50;15.13;;;9.60;99.90;;;;;;5021714;28;20505;-74
2023/12/17 07:59:39;;;;;;;32.33;15.70;;;9.50;99.90;;;;;;5015556;28;20101;-74
2023/12/17 08:02:05;;;;;;;29.83;15.45;;;9.50;99.90;;;;;;5009862;28;20026;-74
2023/12/17 08:04:31;;;;;;;36.45;16.63;;;9.50;99.90;;;;;;5021420;28;20075;-73
2023/12/17 08:06:56;;;;;;;35.85;16.95;;;9.50;99.90;;;;;;5027013;28;20118;-74
2023/12/17 08:09:22;;;;;;;36.30;17.38;;;9.50;99.90;;;;;;5025677;28;20022;-74
2023/12/17 08:11:48;;;;;;;32.70;17.55;;;9.50;99.90;;;;;;5016031;28;20013;-74
2023/12/17 08:14:13;;;;;;;36.08;16.98;;;9.40;99.90;;;;;;5024131;28;20018;-75
2023/12/17 08:16:39;;;;;;;34.13;16.38;;;9.40;99.90;;;;;;5012082;28;20295;-75
2023/12/17 08:19:04;;;;;;;35.45;17.42;;;9.40;99.90;;;;;;5026461;28;20395;-74
2023/12/17 08:21:30;;;;;;;34.95;17.80;;;9.40;99.90;;;;;;5024792;28;20044;-74
2023/12/17 08:23:56;;;;;;;37.05;18.42;;;9.40;99.90;;;;;;5025301;28;20018;-74
2023/12/17 08:26:22;;;;;;;38.63;19.95;;;9.30;99.90;;;;;;5019910;28;20026;-74
2023/12/17 08:28:47;;;;;;;40.92;19.10;;;9.30;99.90;;;;;;5026184;28;20070;-73
2023/12/17 08:31:13;;;;;;;40.80;20.23;;;9.30;99.90;;;;;;5022493;28;20148;-73
2023/12/17 08:33:41;;;;;;;48.15;20.50;;;9.30;99.90;;;;;;5023305;28;20025;-73
2023/12/17 08:36:07;;;;;;;40.33;21.38;;;9.30;99.90;;;;;;5018443;28;20058;-74
2023/12/17 08:38:33;;;;;;;40.22;20.55;;;9.30;99.90;;;;;;5018492;28;20044;-74
2023/12/17 08:41:00;;;;;;;38.00;20.75;;;9.30;99.90;;;;;;5025212;28;20093;-74
2023/12/17 08:43:26;;;;;;;47.70;22.80;;;9.30;99.90;;;;;;5022843;28;20234;-74
2023/12/17 08:45:51;;;;;;;43.00;22.48;;;9.30;99.90;;;;;;5014853;28;20564;-74
2023/12/17 08:48:17;;;;;;;45.22;22.83;;;9.30;99.90;;;;;;5025431;28;20056;-74
2023/12/17 08:50:43;;;;;;;49.80;23.02;;;9.20;99.90;;;;;;5023558;28;20380;-74
2023/12/17 08:53:08;;;;;;;51.63;23.70;;;9.30;99.90;;;;;;5018803;28;20486;-74
2023/12/17 08:55:34;;;;;;;48.67;24.60;;;9.20;99.90;;;;;;5028384;28;20026;-74
2023/12/17 08:58:02;;;;;;;44.25;24.23;;;9.20;99.90;;;;;;5021099;28;20049;-74
2023/12/17 09:00:27;;;;;;;49.08;24.05;;;9.20;99.90;;;;;;5017990;28;20029;-74
2023/12/17 09:02:53;;;;;;;51.85;25.92;;;9.20;99.90;;;;;;5020859;28;20010;-73
2023/12/17 09:05:18;;;;;;;53.30;25.60;;;9.20;99.90;;;;;;5028725;28;20037;-74
2023/12/17 09:07:44;;;;;;;56.30;25.23;;;9.20;99.90;;;;;;5111857;28;20023;-74
2023/12/17 09:10:10;;;;;;;51.97;24.15;;;9.20;99.90;;;;;;5020923;28;20074;-73
2023/12/17 09:12:36;;;;;;;53.78;24.88;;;9.20;99.90;;;;;;5029428;28;20022;-73
2023/12/17 09:15:02;;;;;;;46.72;23.45;;;9.20;99.90;;;;;;5028869;28;20049;-74
2023/12/17 09:17:27;;;;;;;54.25;25.80;;;9.20;99.90;;;;;;5093402;28;20025;-74
2023/12/17 09:19:53;;;;;;;54.45;27.20;;;9.20;99.90;;;;;;5012706;27;20022;-74
2023/12/17 09:22:19;;;;;;;53.72;27.45;;;9.10;99.90;;;;;;5029423;28;20069;-74
2023/12/17 09:24:47;;;;;;;46.53;25.23;;;9.10;99.90;;;;;;5095101;28;20109;-75
2023/12/17 09:27:12;;;;;;;50.33;26.30;;;9.10;99.90;;;;;;5028038;28;20017;-74
2023/12/17 09:29:38;;;;;;;47.50;25.40;;;9.10;99.90;;;;;;5029527;28;20477;-75
2023/12/17 09:32:09;;;;;;;52.55;26.60;;;9.10;99.90;;;;;;5026360;28;20048;-75
2023/12/17 09:34:35;;;;;;;61.53;28.20;;;9.10;99.90;;;;;;5024157;28;20104;-75
2023/12/17 09:37:00;;;;;;;59.75;29.38;;;9.10;99.90;;;;;;5024976;28;20092;-75
2023/12/17 09:39:29;;;;;;;61.85;30.08;;;9.10;99.90;;;;;;5029014;28;20025;-74
2023/12/17 09:41:57;;;;;;;68.65;32.70;;;9.10;99.90;;;;;;5022019;28;20025;-75
2023/12/17 09:44:23;;;;;;;70.15;34.03;;;9.10;99.90;;;;;;5023690;28;20362;-75
2023/12/17 09:46:49;;;;;;;71.75;36.67;;;9.10;99.90;;;;;;5025090;28;20164;-75
2023/12/17 09:49:15;;;;;;;70.45;36.05;;;9.10;99.90;;;;;;5028891;28;20493;-74
2023/12/17 09:51:45;;;;;;;63.03;34.58;;;9.00;99.90;;;;;;5028781;28;20034;-75
2023/12/17 09:54:14;;;;;;;70.72;35.20;;;9.00;99.90;;;;;;5028167;27;20113;-75
2023/12/17 09:56:39;;;;;;;70.40;36.25;;;9.00;99.90;;;;;;5029235;28;20030;-76
2023/12/17 09:59:05;;;;;;;70.40;34.75;;;9.00;99.90;;;;;;5082974;28;20389;-76
2023/12/17 10:01:31;;;;;;;69.22;35.10;;;9.00;99.90;;;;;;5091570;28;20021;-75
2023/12/17 10:03:56;;;;;;;70.20;35.25;;;9.00;99.90;;;;;;5022729;28;20487;-75
2023/12/17 10:06:22;;;;;;;57.97;30.95;;;9.00;99.90;;;;;;5021802;28;20119;-75
2023/12/17 10:08:48;;;;;;;59.15;30.67;;;9.00;99.90;;;;;;5027322;28;20385;-75
2023/12/17 10:11:17;;;;;;;50.45;28.17;;;9.00;99.90;;;;;;5016693;28;20146;-75
2023/12/17 10:13:42;;;;;;;52.33;27.92;;;9.00;99.90;;;;;;5025462;28;20379;-75
2023/12/17 10:16:08;;;;;;;56.38;27.70;;;9.00;99.90;;;;;;5027850;28;20708;-75
2023/12/17 10:18:34;;;;;;;51.58;26.23;;;9.00;99.90;;;;;;5028198;28;20036;-75
2023/12/17 10:21:03;;;;;;;55.00;26.50;;;9.00;99.90;;;;;;5028184;28;20404;-76
2023/12/17 10:23:48;;;;;;;58.10;26.17;;;9.00;99.90;;;;;;5029114;28;20029;-75
2023/12/17 10:26:16;;;;;;;55.83;25.60;;;9.10;99.90;;;;;;5029220;28;20021;-76
2023/12/17 10:28:52;;;;;;;53.90;26.52;;;9.00;99.90;;;;;;5025940;27;20029;-74
2023/12/17 10:31:23;;;;;;;49.20;24.98;;;9.10;99.90;;;;;;5028627;28;20393;-75
2023/12/17 10:34:01;;;;;;;54.35;26.50;;;9.10;99.90;;;;;;5028526;28;20030;-75
2023/12/17 10:36:26;;;;;;;55.22;25.92;;;9.10;99.90;;;;;;5028497;27;20037;-73
2023/12/17 10:38:53;;;;;;;51.55;24.98;;;9.10;99.90;;;;;;5023190;28;20040;-74
2023/12/17 10:41:20;;;;;;;51.05;25.45;;;9.10;99.90;;;;;;5028474;28;20140;-75
2023/12/17 10:43:48;;;;;;;53.30;24.00;;;9.20;99.90;;;;;;5028036;27;20041;-75
2023/12/17 10:46:16;;;;;;;49.55;24.38;;;9.20;99.90;;;;;;5092958;28;20014;-75
2023/12/17 10:48:42;;;;;;;49.95;23.55;;;9.20;99.90;;;;;;5017642;28;20406;-75
2023/12/17 10:51:10;;;;;;;48.85;22.98;;;9.20;99.90;;;;;;5027492;28;20446;-74
2023/12/17 10:53:36;;;;;;;49.80;23.52;;;9.20;99.90;;;;;;5026870;28;20032;-75
2023/12/17 10:56:02;;;;;;;46.58;21.77;;;9.20;99.90;;;;;;5023194;28;20117;-74
2023/12/17 10:58:29;;;;;;;44.17;21.63;;;9.30;99.90;;;;;;5018746;28;20029;-74
2023/12/17 11:00:55;;;;;;;44.63;22.20;;;9.30;99.90;;;;;;5025069;28;20029;-74
2023/12/17 11:03:25;;;;;;;47.10;21.58;;;9.30;99.90;;;;;;5028000;28;20022;-73
2023/12/17 11:05:55;;;;;;;44.65;21.60;;;9.40;99.90;;;;;;5026369;28;20017;-74
2023/12/17 11:08:26;;;;;;;45.50;21.35;;;9.30;99.90;;;;;;5015701;28;20018;-74
2023/12/17 11:10:54;;;;;;;51.15;22.05;;;9.30;99.90;;;;;;5022551;28;20514;-74
2023/12/17 11:13:23;;;;;;;50.33;22.40;;;9.40;99.90;;;;;;5019125;28;20489;-74
2023/12/17 11:15:49;;;;;;;45.88;21.73;;;9.40;99.90;;;;;;5019256;28;20484;-74
2023/12/17 11:18:15;;;;;;;51.50;22.02;;;9.40;99.90;;;;;;5022991;28;20082;-74
2023/12/17 11:20:41;;;;;;;40.53;21.35;;;9.40;99.90;;;;;;5027333;28;20018;-74
2023/12/17 11:23:07;;;;;;;50.13;20.88;;;9.50;99.90;;;;;;5027269;28;20074;-74
2023/12/17 11:25:34;;;;;;;41.78;19.83;;;9.60;99.90;;;;;;5027695;28;20030;-74
2023/12/17 11:28:00;;;;;;;43.03;19.83;;;9.60;99.90;;;;;;5016475;28;20037;-73
2023/12/17 11:30:30;;;;;;;40.55;18.25;;;9.70;99.90;;;;;;5025024;28;20105;-74
2023/12/17 11:32:58;;;;;;;43.22;16.88;;;9.70;99.90;;;;;;5027431;28;20043;-73
2023/12/17 11:35:24;;;;;;;42.55;15.77;;;9.80;99.90;;;;;;5027093;28;20033;-73
2023/12/17 11:37:50;;;;;;;33.00;14.32;;;9.80;99.90;;;;;;5021623;28;20147;-73
2023/12/17 11:40:16;;;;;;;40.22;15.25;;;9.80;99.90;;;;;;5023383;28;20033;-73
2023/12/17 11:42:55;;;;;;;35.63;13.75;;;9.80;99.90;;;;;;5095230;28;20477;-73
2023/12/17 11:45:31;;;;;;;28.52;12.75;;;9.90;99.90;;;;;;5025723;28;20093;-73
2023/12/17 11:48:15;;;;;;;34.33;12.73;;;9.80;99.90;;;;;;5055158;28;20072;-73
2023/12/17 11:50:43;;;;;;;36.80;12.55;;;9.90;99.90;;;;;;5027972;28;20060;-75
2023/12/17 11:53:09;;;;;;;33.33;12.30;;;9.90;99.90;;;;;;5027146;28;20021;-75
2023/12/17 11:55:46;;;;;;;30.80;11.32;;;9.90;99.90;;;;;;5026792;28;20507;-75
2023/12/17 11:58:17;;;;;;;30.58;10.80;;;10.00;99.90;;;;;;5026488;28;20053;-75
2023/12/17 12:00:59;;;;;;;29.73;10.43;;;10.00;99.90;;;;;;5022844;28;20018;-74
2023/12/17 12:03:25;;;;;;;33.15;9.32;;;10.00;99.90;;;;;;5021458;28;20024;-75
2023/12/17 12:05:57;;;;;;;28.08;9.20;;;10.10;99.90;;;;;;5026132;28;20017;-75
2023/12/17 12:08:22;;;;;;;25.88;8.85;;;10.10;99.90;;;;;;5027098;28;20040;-74
2023/12/17 12:10:48;;;;;;;25.52;8.65;;;10.10;99.90;;;;;;5023892;28;20022;-75
2023/12/17 12:13:14;;;;;;;29.85;8.48;;;10.10;99.90;;;;;;5024211;28;20056;-75
2023/12/17 12:15:41;;;;;;;26.13;8.45;;;10.10;99.90;;;;;;5016926;28;20053;-74
2023/12/17 12:18:19;;;;;;;25.30;8.93;;;10.10;99.90;;;;;;5021844;28;20525;-75
2023/12/17 12:20:45;;;;;;;21.52;8.95;;;10.10;99.90;;;;;;5043523;28;20036;-74
2023/12/17 12:23:10;;;;;;;24.52;8.45;;;10.10;99.90;;;;;;5050851;28;20026;-75
2023/12/17 12:25:38;;;;;;;23.27;8.55;;;10.10;99.90;;;;;;5041001;28;20393;-74
2023/12/17 12:28:15;;;;;;;29.85;8.20;;;10.10;99.90;;;;;;5024809;28;20037;-74
2023/12/17 12:30:41;;;;;;;28.17;8.68;;;10.20;99.90;;;;;;5021030;28;20078;-75
2023/12/17 12:33:15;;;;;;;22.38;8.02;;;10.20;99.90;;;;;;5026767;28;20017;-75